^^
Station Historical Data
Daily Summary for May 12, 2019 Units:  English    Metric   Both
« Previous Day
Next Day »
Daily Weekly Monthly Yearly Custom
  High: Low: Average:
Temperature: 66.4 °F 38.9 °F 53.6 °F
Dew Point: 46 °F 35.4 °F 39.5 °F
Humidity: 90% 32% 62%
Wind Speed: 18mph 0mph 6mph
Wind Gust: 18mph - -
Wind- - SW
Pressure: 29.76 in 29.67 in -
Precipitation: 0 in    
Historical Graphs
 
 
Tabular Data for May 12, 2019
Time Temperature Dew Point Pressure Wind Wind Speed Wind Gust Humidity Rainfall Rate (Hourly) solar Conditions
00:04 48.9 °F 43.3 °F 29.69 in NW 9 mph 9 mph 81% 0 in 0.00 W/m2
00:09 48.8 °F 43.2 °F 29.69 in NW 11 mph 11 mph 81% 0 in 0.00 W/m2
00:14 49.1 °F 43.5 °F 29.69 in NNW 6 mph 11 mph 81% 0 in 0.00 W/m2
00:19 49 °F 43.1 °F 29.69 in North 11 mph 12 mph 80% 0 in 0.00 W/m2
00:24 48.9 °F 43 °F 29.69 in NNW 8 mph 13 mph 80% 0 in 0.00 W/m2
00:29 48.8 °F 42.9 °F 29.69 in NNW 10 mph 15 mph 80% 0 in 0.00 W/m2
00:34 48.8 °F 42.6 °F 29.70 in NNW 10 mph 15 mph 79% 0 in 0.00 W/m2
00:39 48.7 °F 42.5 °F 29.70 in NNW 6 mph 15 mph 79% 0 in 0.00 W/m2
00:44 48.3 °F 42.1 °F 29.70 in NW 10 mph 15 mph 79% 0 in 0.00 W/m2
00:49 48 °F 41.8 °F 29.70 in NNW 10 mph 15 mph 79% 0 in 0.00 W/m2
00:54 47.8 °F 41.9 °F 29.69 in NNW 11 mph 18 mph 80% 0 in 0.00 W/m2
00:59 47.8 °F 41.9 °F 29.70 in North 9 mph 18 mph 80% 0 in 0.00 W/m2
01:04 47.5 °F 41.6 °F 29.70 in NNW 8 mph 18 mph 80% 0 in 0.00 W/m2
01:09 47.2 °F 41.3 °F 29.70 in North 6 mph 18 mph 80% 0 in 0.00 W/m2
01:14 46.8 °F 41.3 °F 29.70 in North 6 mph 11 mph 81% 0 in 0.00 W/m2
01:19 46.5 °F 41 °F 29.70 in WNW 8 mph 12 mph 81% 0 in 0.00 W/m2
01:24 46.4 °F 40.9 °F 29.70 in NW 6 mph 12 mph 81% 0 in 0.00 W/m2
01:29 46.6 °F 41.1 °F 29.70 in NW 6 mph 13 mph 81% 0 in 0.00 W/m2
01:34 46.7 °F 41.2 °F 29.70 in NNW 8 mph 13 mph 81% 0 in 0.00 W/m2
01:39 46.6 °F 41.1 °F 29.70 in NNW 8 mph 13 mph 81% 0 in 0.00 W/m2
01:44 46.5 °F 40.7 °F 29.70 in NNW 9 mph 13 mph 80% 0 in 0.00 W/m2
01:49 46.3 °F 40.8 °F 29.70 in NNW 10 mph 13 mph 81% 0 in 0.00 W/m2
01:54 46.1 °F 40.6 °F 29.70 in NNW 11 mph 13 mph 81% 0 in 0.00 W/m2
01:59 46.1 °F 40.6 °F 29.70 in NNW 12 mph 14 mph 81% 0 in 0.00 W/m2
02:04 46.3 °F 40.8 °F 29.70 in NNW 10 mph 14 mph 81% 0 in 0.00 W/m2
02:09 46.4 °F 40.6 °F 29.70 in NNW 10 mph 14 mph 80% 0 in 0.00 W/m2
02:14 46.3 °F 40.5 °F 29.70 in NW 9 mph 14 mph 80% 0 in 0.00 W/m2
02:19 46.2 °F 40.4 °F 29.70 in NW 8 mph 12 mph 80% 0 in 0.00 W/m2
02:24 46.1 °F 40.3 °F 29.70 in NNW 8 mph 12 mph 80% 0 in 0.00 W/m2
02:29 46 °F 40.2 °F 29.70 in NW 5 mph 12 mph 80% 0 in 0.00 W/m2
02:34 46 °F 40.5 °F 29.70 in NW 10 mph 12 mph 81% 0 in 0.00 W/m2
02:39 46 °F 40.2 °F 29.70 in WNW 8 mph 11 mph 80% 0 in 0.00 W/m2
02:44 45.8 °F 40 °F 29.70 in NW 11 mph 11 mph 80% 0 in 0.00 W/m2
02:49 45.6 °F 40.1 °F 29.71 in NW 5 mph 11 mph 81% 0 in 0.00 W/m2
02:54 45.6 °F 40.1 °F 29.71 in NW 5 mph 10 mph 81% 0 in 0.00 W/m2
02:59 45.3 °F 39.5 °F 29.70 in NW 6 mph 10 mph 80% 0 in 0.00 W/m2
03:04 44.8 °F 39.6 °F 29.70 in NW 9 mph 13 mph 82% 0 in 0.00 W/m2
03:09 44.7 °F 39.5 °F 29.71 in NW 8 mph 13 mph 82% 0 in 0.00 W/m2
03:14 44.9 °F 39.7 °F 29.71 in NW 10 mph 13 mph 82% 0 in 0.00 W/m2
03:19 44.9 °F 39.7 °F 29.71 in NW 10 mph 13 mph 82% 0 in 0.00 W/m2
03:24 44.8 °F 39.6 °F 29.71 in NW 6 mph 14 mph 82% 0 in 0.00 W/m2
03:29 44.5 °F 39.7 °F 29.71 in NW 8 mph 14 mph 83% 0 in 0.00 W/m2
03:34 44.4 °F 39.6 °F 29.71 in NW 13 mph 16 mph 83% 0 in 0.00 W/m2
03:39 44.1 °F 39 °F 29.71 in NW 10 mph 16 mph 82% 0 in 0.00 W/m2
03:44 44.1 °F 39.3 °F 29.71 in NW 9 mph 16 mph 83% 0 in 0.00 W/m2
03:49 44 °F 39.2 °F 29.71 in NW 13 mph 16 mph 83% 0 in 0.00 W/m2
03:54 43.7 °F 38.9 °F 29.71 in NW 18 mph 18 mph 83% 0 in 0.00 W/m2
03:59 43.6 °F 38.8 °F 29.71 in NNW 10 mph 18 mph 83% 0 in 0.00 W/m2
04:04 43.4 °F 38.9 °F 29.71 in NW 9 mph 18 mph 84% 0 in 0.00 W/m2
04:09 43.3 °F 38.5 °F 29.71 in NW 9 mph 18 mph 83% 0 in 0.00 W/m2
04:14 42.8 °F 38.3 °F 29.71 in NW 12 mph 18 mph 84% 0 in 0.00 W/m2
04:19 42.7 °F 38.2 °F 29.71 in NNW 10 mph 13 mph 84% 0 in 0.00 W/m2
04:24 42.8 °F 38.3 °F 29.72 in NNW 6 mph 13 mph 84% 0 in 0.00 W/m2
04:29 42.7 °F 38.2 °F 29.72 in NNW 8 mph 13 mph 84% 0 in 0.00 W/m2
04:34 42.4 °F 37.9 °F 29.72 in NW 4 mph 13 mph 84% 0 in 0.00 W/m2
04:39 41.9 °F 37.4 °F 29.72 in NW 5 mph 13 mph 84% 0 in 0.00 W/m2
04:44 41.5 °F 37.3 °F 29.72 in NW 4 mph 6 mph 85% 0 in 0.00 W/m2
04:49 41.4 °F 37.5 °F 29.72 in NNW 5 mph 8 mph 86% 0 in 0.00 W/m2
04:54 41.2 °F 37.3 °F 29.73 in NW 5 mph 8 mph 86% 0 in 0.00 W/m2
04:59 41.1 °F 37.2 °F 29.73 in WNW 9 mph 9 mph 86% 0 in 0.00 W/m2
05:04 41.1 °F 37.2 °F 29.73 in NW 11 mph 13 mph 86% 0 in 0.00 W/m2
05:09 41.2 °F 37.3 °F 29.73 in NW 8 mph 13 mph 86% 0 in 0.00 W/m2
05:14 41.1 °F 37.2 °F 29.73 in NW 10 mph 13 mph 86% 0 in 0.00 W/m2
05:19 40.9 °F 37 °F 29.73 in NW 6 mph 13 mph 86% 0 in 0.00 W/m2
05:24 40.6 °F 36.7 °F 29.73 in NW 8 mph 11 mph 86% 0 in 0.00 W/m2
05:29 40.2 °F 36.6 °F 29.74 in NNW 6 mph 11 mph 87% 0 in 0.00 W/m2
05:34 39.6 °F 36 °F 29.74 in NW 5 mph 11 mph 87% 0 in 0.00 W/m2
05:39 39.5 °F 36.2 °F 29.74 in NW 5 mph 9 mph 88% 0 in 0.00 W/m2
05:44 39.5 °F 36.2 °F 29.74 in NW 8 mph 9 mph 88% 0 in 0.00 W/m2
05:49 39.4 °F 36.1 °F 29.74 in NW 5 mph 9 mph 88% 0 in 0.00 W/m2
05:54 39 °F 35.7 °F 29.74 in NW 6 mph 9 mph 88% 0 in 0.00 W/m2
05:59 39 °F 36 °F 29.74 in NW 6 mph 10 mph 89% 0 in 0.00 W/m2
06:04 39 °F 36 °F 29.74 in NW 5 mph 10 mph 89% 0 in 0.00 W/m2
06:09 39.1 °F 36.1 °F 29.74 in NW 6 mph 10 mph 89% 0 in 5.00 W/m2
06:14 39.4 °F 36.4 °F 29.74 in NW 6 mph 10 mph 89% 0 in 5.00 W/m2
06:19 39.4 °F 36.4 °F 29.74 in NW 5 mph 10 mph 89% 0 in 9.00 W/m2
06:24 39.2 °F 36.2 °F 29.74 in NW 4 mph 10 mph 89% 0 in 11.00 W/m2
06:29 39.1 °F 36.1 °F 29.74 in WNW 8 mph 11 mph 89% 0 in 14.00 W/m2
06:34 39.2 °F 36.2 °F 29.74 in NW 9 mph 11 mph 89% 0 in 18.00 W/m2
06:39 39.1 °F 36.1 °F 29.74 in WNW 5 mph 11 mph 89% 0 in 19.00 W/m2
06:44 38.9 °F 35.9 °F 29.74 in NW 8 mph 11 mph 89% 0 in 23.00 W/m2
06:49 39 °F 36.3 °F 29.74 in WNW 8 mph 11 mph 90% 0 in 25.00 W/m2
06:54 39.3 °F 36.6 °F 29.75 in NW 7 mph 10 mph 90% 0 in 26.00 W/m2
06:59 39.5 °F 36.5 °F 29.75 in NW 8 mph 10 mph 89% 0 in 30.00 W/m2
07:04 39.6 °F 36.6 °F 29.75 in NW 5 mph 10 mph 89% 0 in 32.00 W/m2
07:09 39.9 °F 36.9 °F 29.75 in NW 8 mph 10 mph 89% 0 in 33.00 W/m2
07:14 40 °F 37 °F 29.75 in NW 9 mph 10 mph 89% 0 in 37.00 W/m2
07:19 40.1 °F 37.1 °F 29.76 in NW 8 mph 11 mph 89% 0 in 39.00 W/m2
07:24 40.4 °F 37.4 °F 29.76 in NW 6 mph 11 mph 89% 0 in 40.00 W/m2
07:29 40.6 °F 37.3 °F 29.76 in WNW 3 mph 11 mph 88% 0 in 42.00 W/m2
07:34 40.8 °F 37.5 °F 29.76 in WNW 5 mph 11 mph 88% 0 in 44.00 W/m2
07:39 41 °F 37.7 °F 29.76 in WNW 8 mph 9 mph 88% 0 in 47.00 W/m2
07:44 41.2 °F 37.9 °F 29.76 in NW 4 mph 9 mph 88% 0 in 134.00 W/m2
07:49 41.6 °F 38.3 °F 29.76 in WNW 8 mph 9 mph 88% 0 in 192.00 W/m2
07:54 41.9 °F 38.3 °F 29.76 in NW 5 mph 8 mph 87% 0 in 211.00 W/m2
07:59 42.4 °F 38.8 °F 29.76 in WNW 7 mph 8 mph 87% 0 in 229.00 W/m2
08:04 43 °F 39.4 °F 29.76 in NW 5 mph 9 mph 87% 0 in 248.00 W/m2
08:09 43.9 °F 40.6 °F 29.76 in NNW 6 mph 9 mph 88% 0 in 264.00 W/m2
08:14 44.7 °F 41.1 °F 29.76 in NNW 5 mph 9 mph 87% 0 in 271.00 W/m2
08:19 45.4 °F 41.5 °F 29.76 in NNW 6 mph 11 mph 86% 0 in 267.00 W/m2
08:24 45.9 °F 41.6 °F 29.76 in NW 5 mph 11 mph 85% 0 in 295.00 W/m2
08:29 46.4 °F 41.8 °F 29.76 in NNW 10 mph 11 mph 84% 0 in 318.00 W/m2
08:34 47.1 °F 42.5 °F 29.76 in NW 3 mph 11 mph 84% 0 in 334.00 W/m2
08:39 47.5 °F 42.6 °F 29.76 in NNW 8 mph 10 mph 83% 0 in 348.00 W/m2
08:44 47.8 °F 42.6 °F 29.76 in NNW 6 mph 10 mph 82% 0 in 359.00 W/m2
08:49 48.6 °F 43.7 °F 29.76 in North 5 mph 11 mph 83% 0 in 381.00 W/m2
08:54 49.5 °F 44.2 °F 29.76 in NNW 6 mph 11 mph 82% 0 in 397.00 W/m2
08:59 50 °F 44.1 °F 29.76 in NNE 4 mph 11 mph 80% 0 in 410.00 W/m2
09:04 50.5 °F 44.2 °F 29.76 in North 6 mph 12 mph 79% 0 in 410.00 W/m2
09:09 51 °F 44.7 °F 29.76 in North 8 mph 12 mph 79% 0 in 439.00 W/m2
09:14 51.5 °F 44.9 °F 29.75 in NNE 8 mph 11 mph 78% 0 in 454.00 W/m2
09:19 52.3 °F 45.6 °F 29.76 in North 9 mph 11 mph 78% 0 in 471.00 W/m2
09:24 52.8 °F 45.4 °F 29.76 in North 4 mph 12 mph 76% 0 in 485.00 W/m2
09:29 53.1 °F 45 °F 29.76 in NNE 4 mph 12 mph 74% 0 in 499.00 W/m2
09:34 53.5 °F 45.8 °F 29.76 in North 5 mph 12 mph 75% 0 in 513.00 W/m2
09:39 53.8 °F 45.7 °F 29.76 in NNW 9 mph 12 mph 74% 0 in 529.00 W/m2
09:44 53.7 °F 45.2 °F 29.76 in North 8 mph 13 mph 73% 0 in 534.00 W/m2
09:49 53.8 °F 45.7 °F 29.76 in North 8 mph 13 mph 74% 0 in 545.00 W/m2
09:54 54.3 °F 45.8 °F 29.76 in NW 4 mph 13 mph 73% 0 in 568.00 W/m2
09:59 53.8 °F 45.7 °F 29.76 in NW 7 mph 13 mph 74% 0 in 573.00 W/m2
10:04 53.2 °F 45.5 °F 29.76 in WNW 4 mph 11 mph 75% 0 in 591.00 W/m2
10:09 53.1 °F 45.4 °F 29.76 in WNW 7 mph 11 mph 75% 0 in 605.00 W/m2
10:14 53 °F 45.3 °F 29.76 in WNW 7 mph 11 mph 75% 0 in 617.00 W/m2
10:19 53 °F 44.9 °F 29.76 in NW 7 mph 12 mph 74% 0 in 629.00 W/m2
10:24 52.9 °F 44.8 °F 29.76 in WNW 7 mph 12 mph 74% 0 in 638.00 W/m2
10:29 53 °F 44.9 °F 29.76 in NNW 6 mph 11 mph 74% 0 in 656.00 W/m2
10:34 53.7 °F 46 °F 29.76 in WNW 5 mph 11 mph 75% 0 in 661.00 W/m2
10:39 53.7 °F 44.5 °F 29.76 in NW 3 mph 11 mph 71% 0 in 679.00 W/m2
10:44 53.9 °F 45.1 °F 29.76 in WNW 8 mph 11 mph 72% 0 in 680.00 W/m2
10:49 54.2 °F 45.4 °F 29.76 in NW 6 mph 11 mph 72% 0 in 684.00 W/m2
10:54 54.6 °F 45.8 °F 29.76 in NW 9 mph 11 mph 72% 0 in 707.00 W/m2
10:59 55.4 °F 45 °F 29.76 in NW 6 mph 11 mph 68% 0 in 694.00 W/m2
11:04 55.8 °F 45.4 °F 29.76 in NW 11 mph 11 mph 68% 0 in 700.00 W/m2
11:09 56.4 °F 44 °F 29.76 in NNW 2 mph 13 mph 63% 0 in 691.00 W/m2
11:14 57.4 °F 44.9 °F 29.76 in North 8 mph 13 mph 63% 0 in 664.00 W/m2
11:19 58.6 °F 44.8 °F 29.76 in NE 7 mph 13 mph 60% 0 in 647.00 W/m2
11:24 59.5 °F 44.7 °F 29.76 in NNE 4 mph 13 mph 58% 0 in 629.00 W/m2
11:29 59.8 °F 43.6 °F 29.75 in NNW 5 mph 13 mph 55% 0 in 640.00 W/m2
11:34 59 °F 42.4 °F 29.75 in NNE 5 mph 13 mph 54% 0 in 689.00 W/m2
11:39 59.7 °F 43.5 °F 29.76 in North 2 mph 13 mph 55% 0 in 737.00 W/m2
11:44 60.6 °F 42.9 °F 29.75 in North 6 mph 13 mph 52% 0 in 775.00 W/m2
11:49 61.1 °F 43.8 °F 29.75 in NNE 11 mph 13 mph 53% 0 in 867.00 W/m2
11:54 60.3 °F 41.6 °F 29.75 in NNE 13 mph 14 mph 50% 0 in 202.00 W/m2
11:59 59.9 °F 41.7 °F 29.75 in NE 2 mph 14 mph 51% 0 in 912.00 W/m2
12:04 60.2 °F 42.5 °F 29.75 in NNW 11 mph 13 mph 52% 0 in 220.00 W/m2
12:09 58.5 °F 39.4 °F 29.75 in NNE 8 mph 11 mph 49% 0 in 207.00 W/m2
12:14 58.6 °F 39 °F 29.75 in NE 3 mph 11 mph 48% 0 in 1000.00 W/m2
12:19 60.2 °F 42.5 °F 29.75 in NNE 10 mph 15 mph 52% 0 in 323.00 W/m2
12:24 61.3 °F 43 °F 29.75 in NNE 5 mph 15 mph 51% 0 in 1000.00 W/m2
12:29 61.5 °F 39.9 °F 29.74 in East 4 mph 13 mph 45% 0 in 1085.00 W/m2
12:34 62 °F 43.1 °F 29.75 in North 3 mph 13 mph 50% 0 in 1165.00 W/m2
12:39 61.8 °F 41.3 °F 29.75 in North 6 mph 12 mph 47% 0 in 566.00 W/m2
12:44 61.6 °F 40 °F 29.74 in NNE 2 mph 12 mph 45% 0 in 422.00 W/m2
12:49 61.1 °F 39.6 °F 29.74 in North 8 mph 12 mph 45% 0 in 357.00 W/m2
12:54 60.6 °F 41.3 °F 29.74 in NNW 2 mph 12 mph 49% 0 in 371.00 W/m2
12:59 60 °F 40.2 °F 29.74 in NW 3 mph 12 mph 48% 0 in 496.00 W/m2
13:04 60.4 °F 41.1 °F 29.74 in NW 5 mph 12 mph 49% 0 in 1072.00 W/m2
13:09 59.9 °F 39.6 °F 29.74 in NNW 4 mph 12 mph 47% 0 in 320.00 W/m2
13:14 59 °F 39.3 °F 29.74 in NW 3 mph 12 mph 48% 0 in 313.00 W/m2
13:19 59.5 °F 40.3 °F 29.74 in NNE 13 mph 13 mph 49% 0 in 1125.00 W/m2
13:24 60.8 °F 39.3 °F 29.73 in North 6 mph 13 mph 45% 0 in 1130.00 W/m2
13:29 61 °F 41.2 °F 29.73 in NW 5 mph 13 mph 48% 0 in 390.00 W/m2
13:34 60.7 °F 39.8 °F 29.73 in NNE 6 mph 13 mph 46% 0 in 272.00 W/m2
13:39 60.2 °F 38.2 °F 29.73 in NNW 4 mph 13 mph 44% 0 in 338.00 W/m2
13:44 60.7 °F 38.6 °F 29.73 in West 7 mph 11 mph 44% 0 in 1146.00 W/m2
13:49 60.9 °F 38.8 °F 29.73 in WNW 5 mph 11 mph 44% 0 in 462.00 W/m2
13:54 60.8 °F 41.5 °F 29.73 in NW 14 mph 15 mph 49% 0 in 408.00 W/m2
13:59 59.5 °F 38.1 °F 29.73 in NW 8 mph 15 mph 45% 0 in 304.00 W/m2
14:04 59.3 °F 39.6 °F 29.73 in NW 8 mph 15 mph 48% 0 in 339.00 W/m2
14:09 60.1 °F 39.8 °F 29.73 in WNW 8 mph 15 mph 47% 0 in 986.00 W/m2
14:14 61.1 °F 40.1 °F 29.73 in WNW 10 mph 13 mph 46% 0 in 983.00 W/m2
14:19 61.7 °F 40.7 °F 29.73 in NNW 5 mph 13 mph 46% 0 in 1021.00 W/m2
14:24 62.2 °F 38.8 °F 29.73 in NW 10 mph 13 mph 42% 0 in 1056.00 W/m2
14:29 62.6 °F 40.4 °F 29.73 in NW 4 mph 10 mph 44% 0 in 1130.00 W/m2
14:34 62.1 °F 39.9 °F 29.73 in North 5 mph 10 mph 44% 0 in 394.00 W/m2
14:39 62.4 °F 41.9 °F 29.72 in North 10 mph 10 mph 47% 0 in 621.00 W/m2
14:44 61.9 °F 39.1 °F 29.73 in NNW 9 mph 13 mph 43% 0 in 276.00 W/m2
14:49 60.6 °F 38 °F 29.73 in NW 6 mph 13 mph 43% 0 in 241.00 W/m2
14:54 60 °F 39.1 °F 29.72 in NNW 9 mph 13 mph 46% 0 in 258.00 W/m2
14:59 60.9 °F 38.2 °F 29.72 in West 7 mph 13 mph 43% 0 in 956.00 W/m2
15:04 61.8 °F 39.1 °F 29.72 in WSW 8 mph 10 mph 43% 0 in 965.00 W/m2
15:09 62.2 °F 38.8 °F 29.72 in West 8 mph 10 mph 42% 0 in 981.00 W/m2
15:14 62.1 °F 39.9 °F 29.72 in SW 5 mph 10 mph 44% 0 in 1030.00 W/m2
15:19 62.4 °F 39.6 °F 29.72 in WSW 8 mph 10 mph 43% 0 in 1049.00 W/m2
15:24 62.7 °F 38 °F 29.71 in SE 1 mph 10 mph 40% 0 in 979.00 W/m2
15:29 63.3 °F 37.9 °F 29.72 in WNW 1 mph 8 mph 39% 0 in 970.00 W/m2
15:34 63.6 °F 39.5 °F 29.71 in NW 4 mph 12 mph 41% 0 in 953.00 W/m2
15:39 63.9 °F 41.5 °F 29.71 in NE 12 mph 14 mph 44% 0 in 937.00 W/m2
15:44 64.9 °F 40 °F 29.71 in North 6 mph 14 mph 40% 0 in 865.00 W/m2
15:49 65.1 °F 41.4 °F 29.71 in North 6 mph 12 mph 42% 0 in 701.00 W/m2
15:54 64.5 °F 40.3 °F 29.71 in NNW 9 mph 14 mph 41% 0 in 740.00 W/m2
15:59 64.2 °F 37.4 °F 29.71 in Calm   14 mph 37% 0 in 765.00 W/m2
16:04 64.3 °F 38.8 °F 29.71 in Calm   12 mph 39% 0 in 831.00 W/m2
16:09 64.6 °F 39.1 °F 29.70 in East 3 mph 12 mph 39% 0 in 710.00 W/m2
16:14 64.6 °F 39.1 °F 29.70 in NE 3 mph 12 mph 39% 0 in 761.00 W/m2
16:19 64.7 °F 37.8 °F 29.70 in NE 3 mph 7 mph 37% 0 in 800.00 W/m2
16:24 64.1 °F 38.6 °F 29.70 in NW 3 mph 8 mph 39% 0 in 784.00 W/m2
16:29 63.7 °F 36.2 °F 29.70 in Calm   8 mph 36% 0 in 766.00 W/m2
16:34 63.7 °F 38.3 °F 29.70 in SE 5 mph 8 mph 39% 0 in 752.00 W/m2
16:39 63.6 °F 38.2 °F 29.70 in NNE 3 mph 8 mph 39% 0 in 650.00 W/m2
16:44 64.3 °F 38.1 °F 29.70 in NNW 6 mph 10 mph 38% 0 in 673.00 W/m2
16:49 63.5 °F 37.4 °F 29.70 in West 3 mph 10 mph 38% 0 in 698.00 W/m2
16:54 63.7 °F 37.6 °F 29.70 in ENE 4 mph 10 mph 38% 0 in 691.00 W/m2
16:59 64.1 °F 38 °F 29.70 in ENE 1 mph 10 mph 38% 0 in 642.00 W/m2
17:04 64.7 °F 38.5 °F 29.69 in North 3 mph 6 mph 38% 0 in 650.00 W/m2
17:09 64.6 °F 38.4 °F 29.69 in West 7 mph 8 mph 38% 0 in 635.00 W/m2
17:14 64.5 °F 38.3 °F 29.69 in WSW 7 mph 10 mph 38% 0 in 624.00 W/m2
17:19 64.1 °F 37.3 °F 29.69 in NNW 3 mph 10 mph 37% 0 in 610.00 W/m2
17:24 63.8 °F 36.3 °F 29.69 in NW 6 mph 10 mph 36% 0 in 596.00 W/m2
17:29 64.3 °F 39.4 °F 29.68 in NNW 5 mph 10 mph 40% 0 in 584.00 W/m2
17:34 64.9 °F 36.6 °F 29.68 in Calm   10 mph 35% 0 in 570.00 W/m2
17:39 65.3 °F 40.3 °F 29.68 in NE 6 mph 10 mph 40% 0 in 561.00 W/m2
17:44 65.4 °F 36.3 °F 29.68 in NE 2 mph 10 mph 34% 0 in 543.00 W/m2
17:49 64.9 °F 36.6 °F 29.68 in NW 6 mph 10 mph 35% 0 in 529.00 W/m2
17:54 65 °F 38.8 °F 29.68 in NW 1 mph 10 mph 38% 0 in 515.00 W/m2
17:59 65.5 °F 37.8 °F 29.68 in South 5 mph 9 mph 36% 0 in 499.00 W/m2
18:04 65.6 °F 37.9 °F 29.68 in SSE 5 mph 9 mph 36% 0 in 482.00 W/m2
18:09 65.6 °F 39.3 °F 29.68 in South 4 mph 9 mph 38% 0 in 468.00 W/m2
18:14 65.4 °F 38.4 °F 29.68 in South 5 mph 10 mph 37% 0 in 454.00 W/m2
18:19 65.2 °F 37.6 °F 29.68 in South 7 mph 10 mph 36% 0 in 438.00 W/m2
18:24 64.9 °F 37.3 °F 29.68 in South 1 mph 10 mph 36% 0 in 417.00 W/m2
18:29 64.9 °F 38 °F 29.68 in NE 3 mph 10 mph 37% 0 in 404.00 W/m2
18:34 65.6 °F 38.6 °F 29.68 in ESE 1 mph 5 mph 37% 0 in 388.00 W/m2
18:39 65.7 °F 38 °F 29.68 in ENE 1 mph 5 mph 36% 0 in 376.00 W/m2
18:44 66.3 °F 37.1 °F 29.68 in ENE 2 mph 5 mph 34% 0 in 364.00 W/m2
18:49 66.2 °F 35.4 °F 29.68 in ENE 1 mph 3 mph 32% 0 in 350.00 W/m2
18:54 66.3 °F 36.3 °F 29.68 in ENE 1 mph 3 mph 33% 0 in 334.00 W/m2
18:59 66.4 °F 37.9 °F 29.68 in SSE 1 mph 8 mph 35% 0 in 316.00 W/m2
19:04 65.8 °F 38.1 °F 29.67 in SSE 5 mph 8 mph 36% 0 in 297.00 W/m2
19:09 65.1 °F 37.5 °F 29.67 in SSE 1 mph 7 mph 36% 0 in 279.00 W/m2
19:14 64.6 °F 39.7 °F 29.67 in South 5 mph 9 mph 40% 0 in 267.00 W/m2
19:19 64.2 °F 37.4 °F 29.67 in SSW 3 mph 9 mph 37% 0 in 250.00 W/m2
19:24 64.2 °F 38 °F 29.67 in South 3 mph 9 mph 38% 0 in 232.00 W/m2
19:29 64.3 °F 36.8 °F 29.67 in SSW 2 mph 8 mph 36% 0 in 216.00 W/m2
19:34 64.1 °F 37.3 °F 29.67 in SSE 4 mph 8 mph 37% 0 in 199.00 W/m2
19:39 63.8 °F 37.7 °F 29.67 in SSE 2 mph 8 mph 38% 0 in 179.00 W/m2
19:44 63.5 °F 36.7 °F 29.67 in SSE 2 mph 7 mph 37% 0 in 163.00 W/m2
19:49 63.4 °F 38 °F 29.67 in SE 4 mph 7 mph 39% 0 in 142.00 W/m2
19:54 63.2 °F 37.8 °F 29.67 in SSE 1 mph 5 mph 39% 0 in 130.00 W/m2
19:59 63.2 °F 37.2 °F 29.67 in SSE 1 mph 5 mph 38% 0 in 113.00 W/m2
20:04 62.9 °F 38.2 °F 29.67 in SSE 3 mph 6 mph 40% 0 in 98.00 W/m2
20:09 62.6 °F 38.6 °F 29.67 in SSE 3 mph 6 mph 41% 0 in 84.00 W/m2
20:14 62.3 °F 38.9 °F 29.67 in SSE 3 mph 6 mph 42% 0 in 72.00 W/m2
20:19 62.1 °F 38.7 °F 29.67 in SSE 2 mph 6 mph 42% 0 in 60.00 W/m2
20:24 61.8 °F 39.1 °F 29.67 in SSE 2 mph 5 mph 43% 0 in 51.00 W/m2
20:29 61.6 °F 37.7 °F 29.67 in SSE 2 mph 5 mph 41% 0 in 40.00 W/m2
20:34 61.4 °F 38.1 °F 29.67 in SSE 2 mph 3 mph 42% 0 in 33.00 W/m2
20:39 61 °F 38.3 °F 29.67 in SE 4 mph 4 mph 43% 0 in 26.00 W/m2
20:44 60.6 °F 38.6 °F 29.67 in SE 3 mph 4 mph 44% 0 in 21.00 W/m2
20:49 60.1 °F 38.1 °F 29.67 in SE 3 mph 4 mph 44% 0 in 18.00 W/m2
20:54 59.5 °F 37.6 °F 29.67 in SE 3 mph 5 mph 44% 0 in 14.00 W/m2
20:59 58.8 °F 36.9 °F 29.67 in ESE 3 mph 6 mph 44% 0 in 9.00 W/m2
21:04 58.5 °F 37.2 °F 29.67 in ESE 3 mph 6 mph 45% 0 in 7.00 W/m2
21:09 58 °F 36.8 °F 29.67 in ESE 4 mph 6 mph 45% 0 in 5.00 W/m2
21:14 57.7 °F 36.5 °F 29.67 in ESE 6 mph 6 mph 45% 0 in 0.00 W/m2
21:19 57.4 °F 36.8 °F 29.67 in ESE 6 mph 7 mph 46% 0 in 0.00 W/m2
21:24 57.1 °F 36.5 °F 29.67 in East 6 mph 7 mph 46% 0 in 0.00 W/m2
21:29 56.9 °F 36.9 °F 29.67 in East 4 mph 7 mph 47% 0 in 0.00 W/m2
21:34 56.7 °F 36.7 °F 29.67 in ESE 7 mph 8 mph 47% 0 in 0.00 W/m2
21:39 56.2 °F 36.8 °F 29.68 in ESE 6 mph 8 mph 48% 0 in 0.00 W/m2
21:44 55.6 °F 37.2 °F 29.68 in ESE 4 mph 8 mph 50% 0 in 0.00 W/m2
21:49 55.1 °F 36.8 °F 29.68 in SE 4 mph 7 mph 50% 0 in 0.00 W/m2
21:54 54.8 °F 37 °F 29.68 in ESE 4 mph 7 mph 51% 0 in 0.00 W/m2
21:59 54.4 °F 37.1 °F 29.68 in ESE 4 mph 7 mph 52% 0 in 0.00 W/m2
22:04 54 °F 37.2 °F 29.68 in ESE 6 mph 7 mph 53% 0 in 0.00 W/m2
22:09 53.7 °F 37.4 °F 29.68 in ESE 6 mph 8 mph 54% 0 in 0.00 W/m2
22:14 53.3 °F 37.1 °F 29.68 in ESE 6 mph 8 mph 54% 0 in 0.00 W/m2
22:19 53.1 °F 36.9 °F 29.68 in ESE 7 mph 8 mph 54% 0 in 0.00 W/m2
22:24 52.8 °F 36.6 °F 29.68 in ESE 6 mph 8 mph 54% 0 in 0.00 W/m2
22:29 52.6 °F 36.9 °F 29.68 in ESE 6 mph 8 mph 55% 0 in 0.00 W/m2
22:34 52.5 °F 37.2 °F 29.69 in ESE 7 mph 8 mph 56% 0 in 0.00 W/m2
22:39 52.4 °F 37.2 °F 29.68 in ESE 6 mph 7 mph 56% 0 in 0.00 W/m2
22:44 52.1 °F 36.9 °F 29.68 in ESE 6 mph 7 mph 56% 0 in 0.00 W/m2
22:49 51.9 °F 37.1 °F 29.68 in ESE 6 mph 7 mph 57% 0 in 0.00 W/m2
22:54 51.8 °F 37 °F 29.68 in ESE 6 mph 7 mph 57% 0 in 0.00 W/m2
22:59 51.5 °F 36.8 °F 29.69 in ESE 4 mph 7 mph 57% 0 in 0.00 W/m2
23:04 51.4 °F 37.1 °F 29.69 in ESE 4 mph 7 mph 58% 0 in 0.00 W/m2
23:09 51.3 °F 37 °F 29.69 in ESE 4 mph 7 mph 58% 0 in 0.00 W/m2
23:14 51.2 °F 36.9 °F 29.68 in ESE 6 mph 7 mph 58% 0 in 0.00 W/m2
23:19 51.1 °F 36.8 °F 29.68 in ESE 6 mph 7 mph 58% 0 in 0.00 W/m2
23:24 51 °F 36.7 °F 29.68 in ESE 5 mph 7 mph 58% 0 in 0.00 W/m2
23:29 50.9 °F 36.6 °F 29.68 in ESE 6 mph 7 mph 58% 0 in 0.00 W/m2
23:34 50.8 °F 37 °F 29.68 in ESE 4 mph 7 mph 59% 0 in 0.00 W/m2
23:39 50.8 °F 37 °F 29.68 in ESE 4 mph 7 mph 59% 0 in 0.00 W/m2
23:44 50.5 °F 36.7 °F 29.68 in ESE 3 mph 6 mph 59% 0 in 0.00 W/m2
23:49 50.4 °F 36.6 °F 29.68 in SE 5 mph 7 mph 59% 0 in 0.00 W/m2
23:54 50.4 °F 36.6 °F 29.68 in ESE 4 mph 7 mph 59% 0 in 0.00 W/m2
23:59 50.4 °F 36.6 °F 29.68 in ESE 5 mph 7 mph 59% 0 in 0.00 W/m2
Bismarck, North Dakota, USA
Compliments of Weather Underground - 4 mb